Terminal Aerodrome Forecast
Issued by NWS

Home | Current Version | Previous Version | Text Only | Print | Product List | Glossary On
Versions: 1 2 3 4 5 6 7 8 9 10 11 12 13 14 15 16 17 18
000
FTUS46 KMFR 211814 AAA
TAFOTH
TAF AMD
KOTH 211814Z 2118/2218 24008KT 6SM -RA BR SCT015 OVC035
     FM212100 24007KT 5SM -SHRA SCT008 BKN015 OVC025
     FM220300 21007KT 6SM -RA BR OVC015
     FM220900 17005KT P6SM SCT010 OVC020
     FM221100 15004KT 2SM BR OVC008=

USA.gov is the U.S. government's official web portal to all federal, state and local government web resources and services.